Time;durP1;ratioP1;P1;durP2;ratioP2;P2;SDS_P1;SDS_P2;PMS_P1;PMS_P2;Temp;Humidity;BMP_temperature;BMP_pressure;BME280_temperature;BME280_humidity;BME280_pressure;Samples;Min_cycle;Max_cycle;Signal;HPM_P1;HPM_P2
2022/04/26 03:37:12;;;;;;;28.53;22.33;;;;;;;7.44;100.00;95745.25;5029724;28;20029;-78
2022/04/26 03:39:42;;;;;;;27.20;21.60;;;;;;;7.41;100.00;95748.16;5012169;28;20116;-77
2022/04/26 03:42:08;;;;;;;26.67;20.10;;;;;;;7.38;100.00;95748.47;5028932;28;20103;-77
2022/04/26 03:44:35;;;;;;;26.80;20.57;;;;;;;7.36;100.00;95743.41;5028927;28;20029;-79
2022/04/26 03:47:02;;;;;;;24.03;20.17;;;;;;;7.35;100.00;95743.56;5029414;28;20209;-78
2022/04/26 03:49:27;;;;;;;26.83;21.57;;;;;;;7.29;100.00;95739.75;5030120;28;20026;-79
2022/04/26 03:51:53;;;;;;;24.60;20.00;;;;;;;7.26;100.00;95740.06;5014385;28;20549;-80
2022/04/26 03:54:20;;;;;;;25.23;19.80;;;;;;;7.28;100.00;95730.28;5019084;28;20109;-78
2022/04/26 03:56:46;;;;;;;26.70;20.07;;;;;;;7.31;100.00;95733.41;5029782;28;20026;-79
2022/04/26 03:59:12;;;;;;;25.40;20.13;;;;;;;7.32;100.00;95742.06;5031606;28;20033;-79
2022/04/26 04:01:38;;;;;;;24.53;19.70;;;;;;;7.35;100.00;95744.38;5030762;28;20396;-79
2022/04/26 04:04:04;;;;;;;24.67;20.20;;;;;;;7.32;100.00;95749.91;5029279;28;20029;-79
2022/04/26 04:06:29;;;;;;;22.90;19.50;;;;;;;7.32;100.00;95760.38;5029120;28;20680;-79
2022/04/26 04:08:55;;;;;;;26.00;20.80;;;;;;;7.32;100.00;95760.38;5030326;28;20021;-79
2022/04/26 04:11:21;;;;;;;26.43;21.00;;;;;;;7.31;100.00;95758.75;5029063;28;20096;-79
2022/04/26 04:13:46;;;;;;;37.47;27.83;;;;;;;7.30;100.00;95757.09;5028637;28;20045;-79
2022/04/26 04:16:12;;;;;;;26.10;20.43;;;;;;;7.29;100.00;95765.91;5013155;28;20380;-80
2022/04/26 04:21:22;;;;;;;22.70;18.03;;;;;;;7.28;100.00;95774.75;5027013;28;20029;-78
2022/04/26 04:23:49;;;;;;;26.03;19.57;;;;;;;7.31;100.00;95766.59;5028770;28;20053;-79
2022/04/26 04:26:14;;;;;;;22.73;18.03;;;;;;;7.29;100.00;95769.34;5028776;28;20041;-80
2022/04/26 04:28:40;;;;;;;23.37;19.13;;;;;;;7.32;100.00;95778.69;5023290;28;20033;-78
2022/04/26 04:31:06;;;;;;;25.80;19.17;;;;;;;7.37;100.00;95776.44;5030408;28;20087;-78
2022/04/26 04:33:31;;;;;;;23.57;18.07;;;;;;;7.32;100.00;95776.91;5029063;28;20119;-79
2022/04/26 04:35:59;;;;;;;20.53;16.80;;;;;;;7.35;100.00;95778.41;5029171;28;20061;-79
2022/04/26 04:38:26;;;;;;;20.73;17.40;;;;;;;7.39;100.00;95776.28;5029399;28;20790;-79
2022/04/26 04:40:53;;;;;;;21.70;17.10;;;;;;;7.32;100.00;95782.13;5025833;28;20064;-79
2022/04/26 04:43:19;;;;;;;20.90;16.57;;;;;;;7.31;100.00;95780.50;5029632;28;20033;-79
2022/04/26 04:45:45;;;;;;;20.83;17.37;;;;;;;7.38;100.00;95780.72;5028957;28;20034;-78
2022/04/26 04:48:11;;;;;;;19.70;16.07;;;;;;;7.35;100.00;95786.25;5028686;28;20033;-78
2022/04/26 04:50:37;;;;;;;19.97;16.93;;;;;;;7.40;100.00;95783.97;5035352;28;20029;-79
2022/04/26 04:53:03;;;;;;;20.73;16.40;;;;;;;7.39;100.00;95792.00;5033594;28;20039;-78
2022/04/26 04:55:28;;;;;;;19.47;15.53;;;;;;;7.48;100.00;95791.09;5034175;28;20025;-79
2022/04/26 04:57:54;;;;;;;21.13;15.27;;;;;;;7.45;100.00;95796.63;5033912;28;20029;-79
2022/04/26 05:00:20;;;;;;;30.33;23.40;;;;;;;7.42;100.00;95796.94;5033788;28;20521;-80
2022/04/26 05:02:46;;;;;;;36.73;28.53;;;;;;;7.43;100.00;95801.19;5034531;28;20040;-78
2022/04/26 05:05:12;;;;;;;21.53;17.20;;;;;;;7.42;100.00;95807.38;5034324;28;20025;-78
2022/04/26 05:07:38;;;;;;;19.37;15.87;;;;;;;7.34;100.00;95805.50;5031486;28;20029;-80
2022/04/26 05:10:06;;;;;;;22.93;18.00;;;;;;;7.44;100.00;95815.88;5033422;28;20156;-78
2022/04/26 05:12:35;;;;;;;22.93;17.87;;;;;;;7.38;100.00;95816.47;5023890;28;20033;-78
2022/04/26 05:15:02;;;;;;;22.67;17.97;;;;;;;7.40;100.00;95814.56;5034295;28;20490;-79
2022/04/26 05:17:38;;;;;;;22.57;18.13;;;;;;;7.42;100.00;95820.47;5012493;28;20125;-78
2022/04/26 05:20:05;;;;;;;21.63;16.57;;;;;;;7.33;100.00;95822.19;5031732;28;20080;-80
2022/04/26 05:22:31;;;;;;;21.87;17.60;;;;;;;7.30;100.00;95815.44;5034469;28;20142;-79
2022/04/26 05:24:57;;;;;;;20.67;17.10;;;;;;;7.36;100.00;95827.13;5034366;28;20415;-78
2022/04/26 05:27:30;;;;;;;18.77;15.63;;;;;;;7.29;100.00;95828.69;5032434;28;20025;-79
2022/04/26 05:29:58;;;;;;;20.73;15.43;;;;;;;7.32;100.00;95821.34;5032902;28;20029;-79
2022/04/26 05:32:27;;;;;;;17.37;14.07;;;;;;;7.27;100.00;95820.16;5033268;28;20037;-79
2022/04/26 05:35:01;;;;;;;16.47;12.80;;;;;;;7.18;100.00;95813.22;5013720;28;20196;-78
2022/04/26 05:37:27;;;;;;;15.03;12.20;;;;;;;7.23;100.00;95813.59;5034465;28;20036;-78
2022/04/26 05:39:55;;;;;;;16.53;13.63;;;;;;;7.28;100.00;95816.59;5032651;28;20033;-79
2022/04/26 05:42:24;;;;;;;16.80;12.93;;;;;;;7.28;100.00;95816.59;5018853;28;20045;-79
2022/04/26 05:44:49;;;;;;;17.13;14.07;;;;;;;7.26;100.00;95819.34;5029470;28;20087;-81
2022/04/26 05:47:15;;;;;;;18.07;14.13;;;;;;;7.33;100.00;95824.78;5022577;28;20025;-78
2022/04/26 05:49:40;;;;;;;18.10;14.00;;;;;;;7.27;100.00;95825.38;5027907;28;20032;-78
2022/04/26 05:52:06;;;;;;;17.27;13.13;;;;;;;7.26;100.00;95821.94;5035124;28;20083;-78
2022/04/26 05:54:33;;;;;;;19.50;13.17;;;;;;;7.39;100.00;95816.34;5033069;28;20033;-79
2022/04/26 05:56:59;;;;;;;17.37;13.73;;;;;;;7.33;100.00;95825.59;5016682;28;20037;-79
2022/04/26 05:59:25;;;;;;;24.13;19.17;;;;;;;7.33;100.00;95819.56;5050135;28;20033;-79
2022/04/26 06:01:52;;;;;;;27.90;22.03;;;;;;;7.35;100.00;95816.81;5015095;28;20032;-79
2022/04/26 06:04:18;;;;;;;18.20;14.07;;;;;;;7.55;100.00;95819.13;5033500;28;20029;-79
2022/04/26 06:06:45;;;;;;;18.90;15.03;;;;;;;7.66;100.00;95820.66;5035683;28;20498;-79
2022/04/26 06:09:15;;;;;;;18.90;14.00;;;;;;;7.80;100.00;95817.50;5017477;28;20026;-80
2022/04/26 06:11:41;;;;;;;15.47;13.20;;;;;;;7.83;100.00;95815.56;5033615;28;20033;-79
2022/04/26 06:14:08;;;;;;;17.63;13.57;;;;;;;7.74;100.00;95820.72;5034521;28;20025;-80
2022/04/26 06:16:34;;;;;;;16.57;13.80;;;;;;;7.73;100.00;95816.47;5035377;28;20037;-80
2022/04/26 06:19:00;;;;;;;16.83;12.30;;;;;;;7.64;100.00;95824.41;5031731;28;20087;-80
2022/04/26 06:21:25;;;;;;;15.93;12.50;;;;;;;7.75;100.00;95818.94;5039136;28;20025;-80
2022/04/26 06:23:51;;;;;;;14.20;11.83;;;;;;;7.66;100.00;95823.28;5037217;28;20061;-80
2022/04/26 06:26:17;;;;;;;12.93;10.03;;;;;;;7.50;100.00;95829.19;5039873;28;20025;-80
2022/04/26 06:28:42;;;;;;;14.53;9.63;;;;;;;7.58;100.00;95828.47;5038749;28;20029;-80
2022/04/26 06:31:09;;;;;;;13.10;9.60;;;;;;;7.62;100.00;95832.41;5021609;28;20092;-80
2022/04/26 06:33:34;;;;;;;14.53;11.17;;;;;;;7.66;100.00;95835.56;5037335;28;20048;-80
2022/04/26 06:36:00;;;;;;;15.20;11.43;;;;;;;7.66;100.00;95843.41;5011534;28;20029;-81
2022/04/26 06:38:26;;;;;;;15.33;11.10;;;;;;;7.70;100.00;95836.91;5029872;28;20040;-80
2022/04/26 06:40:53;;;;;;;13.57;11.10;;;;;;;7.73;100.00;95841.81;5033303;28;20045;-79
2022/04/26 06:43:19;;;;;;;13.50;10.43;;;;;;;7.79;100.00;95836.81;5034678;28;20366;-80
2022/04/26 06:45:48;;;;;;;13.90;10.93;;;;;;;7.75;100.00;95838.09;5033181;28;20112;-80
2022/04/26 06:48:19;;;;;;;13.40;10.07;;;;;;;7.77;100.00;95833.50;5036024;28;20104;-80
2022/04/26 06:50:46;;;;;;;13.93;10.63;;;;;;;7.85;100.00;95829.34;5049008;28;20531;-78
2022/04/26 06:53:13;;;;;;;10.53;8.63;;;;;;;7.85;100.00;95840.63;5028963;28;20462;-80
2022/04/26 06:55:38;;;;;;;11.90;9.30;;;;;;;8.04;100.00;95834.38;5035484;28;20033;-80
2022/04/26 06:58:04;;;;;;;11.60;9.10;;;;;;;8.05;100.00;95830.78;5038882;28;20109;-80
2022/04/26 07:00:30;;;;;;;10.43;8.07;;;;;;;8.14;100.00;95827.22;5043692;28;20018;-79
2022/04/26 07:02:56;;;;;;;8.53;6.57;;;;;;;8.25;100.00;95832.22;5040872;28;20526;-80
2022/04/26 07:05:22;;;;;;;9.27;7.17;;;;;;;8.33;100.00;95820.16;5037099;28;20022;-80
2022/04/26 07:07:52;;;;;;;9.37;6.30;;;;;;;8.29;100.00;95832.75;5040987;28;20115;-80
2022/04/26 07:10:18;;;;;;;10.90;7.23;;;;;;;8.36;100.00;95835.56;5040801;28;20033;-80
2022/04/26 07:12:44;;;;;;;7.90;6.17;;;;;;;8.18;100.00;95843.44;5024613;28;20120;-79
2022/04/26 07:15:10;;;;;;;8.67;5.97;;;;;;;8.15;100.00;95847.22;5017172;28;20068;-79
2022/04/26 07:17:40;;;;;;;9.57;7.73;;;;;;;8.14;100.00;95848.19;5032659;28;20033;-80
2022/04/26 07:20:08;;;;;;;9.97;7.70;;;;;;;8.18;100.00;95846.91;5043120;28;20037;-79
2022/04/26 07:22:34;;;;;;;8.73;6.93;;;;;;;8.07;100.00;95838.47;5039605;28;20789;-80
2022/04/26 07:25:00;;;;;;;11.30;8.10;;;;;;;8.18;100.00;95840.84;5039017;28;20044;-80
2022/04/26 07:27:26;;;;;;;9.67;7.03;;;;;;;8.16;100.00;95843.63;5040951;28;20021;-79
2022/04/26 07:29:52;;;;;;;8.87;7.10;;;;;;;8.42;100.00;95837.59;5041968;28;20026;-80
2022/04/26 07:32:19;;;;;;;9.37;7.30;;;;;;;8.57;100.00;95836.03;5041441;28;20466;-79
2022/04/26 07:34:47;;;;;;;7.47;5.37;;;;;;;8.64;100.00;95828.34;5024913;28;20052;-79
2022/04/26 07:37:13;;;;;;;6.63;4.87;;;;;;;8.72;100.00;95829.22;5024121;28;20076;-80
2022/04/26 07:39:39;;;;;;;7.10;5.00;;;;;;;8.84;100.00;95827.13;5040295;28;20116;-80
2022/04/26 07:42:05;;;;;;;7.23;5.27;;;;;;;8.94;100.00;95819.13;5041035;28;20045;-80
2022/04/26 07:44:31;;;;;;;8.10;4.77;;;;;;;8.93;100.00;95809.63;5051456;28;20042;-80
2022/04/26 07:46:58;;;;;;;6.10;4.57;;;;;;;8.81;100.00;95808.25;5032457;28;20038;-80
2022/04/26 07:49:24;;;;;;;7.47;5.33;;;;;;;9.03;100.00;95818.19;5045282;28;20022;-78
2022/04/26 07:51:51;;;;;;;6.57;4.87;;;;;;;9.33;100.00;95810.72;5026517;28;20030;-78
2022/04/26 07:54:17;;;;;;;6.70;4.80;;;;;;;9.32;100.00;95816.91;5041822;28;20025;-78
2022/04/26 07:56:44;;;;;;;7.03;4.97;;;;;;;9.25;100.00;95814.13;5042682;28;20048;-78
2022/04/26 07:59:10;;;;;;;5.07;3.53;;;;;;;9.55;100.00;95817.94;5023243;28;20628;-78
2022/04/26 08:01:35;;;;;;;5.47;3.73;;;;;;;9.47;100.00;95817.94;5035349;28;20034;-78
2022/04/26 08:04:01;;;;;;;6.23;4.57;;;;;;;9.39;100.00;95816.13;5038782;28;20037;-79
2022/04/26 08:06:27;;;;;;;7.00;4.67;;;;;;;9.47;100.00;95828.44;5037832;28;20444;-78
2022/04/26 08:08:54;;;;;;;6.33;4.33;;;;;;;9.47;100.00;95825.00;5036652;28;20035;-78
2022/04/26 08:11:21;;;;;;;5.27;3.60;;;;;;;9.45;100.00;95825.94;5022605;28;20060;-78
2022/04/26 08:13:47;;;;;;;6.47;4.20;;;;;;;9.40;100.00;95817.75;5041711;28;20048;-78
2022/04/26 08:16:13;;;;;;;6.00;3.90;;;;;;;9.35;100.00;95819.22;5031118;28;20033;-78
2022/04/26 08:18:38;;;;;;;5.27;3.93;;;;;;;9.44;100.00;95823.50;5023568;28;20102;-79
2022/04/26 08:21:08;;;;;;;4.23;3.10;;;;;;;9.42;100.00;95826.31;5021769;28;20068;-78
2022/04/26 08:27:22;;;;;;;6.10;4.10;;;;;;;9.56;100.00;95832.72;5036733;28;20041;-78
2022/04/26 08:29:07;;;;;;;4.27;2.90;;;;;;;9.60;100.00;95844.53;5038426;28;20025;-78
2022/04/26 08:31:33;;;;;;;4.60;3.10;;;;;;;9.55;100.00;95859.94;5042546;28;20130;-78
2022/04/26 08:33:59;;;;;;;5.07;3.20;;;;;;;9.46;100.00;95853.03;5040644;28;20029;-78
2022/04/26 08:36:25;;;;;;;4.73;2.90;;;;;;;9.43;100.00;95851.56;5043728;28;20621;-78
2022/04/26 08:38:51;;;;;;;4.60;2.83;;;;;;;9.37;100.00;95854.81;5046627;28;20585;-78
2022/04/26 08:41:16;;;;;;;4.17;2.90;;;;;;;9.48;100.00;95858.94;5030010;28;20537;-77
2022/04/26 08:43:42;;;;;;;3.97;2.70;;;;;;;9.82;100.00;95858.00;5046240;28;20025;-79
2022/04/26 08:46:08;;;;;;;4.30;2.53;;;;;;;9.79;100.00;95853.06;5029891;28;20033;-78
2022/04/26 08:51:20;;;;;;;4.80;3.10;;;;;;;9.85;100.00;95883.94;5037560;28;20501;-80
2022/04/26 08:53:46;;;;;;;4.07;2.90;;;;;;;9.74;100.00;95892.13;5045080;28;20037;-80
2022/04/26 08:56:12;;;;;;;5.90;3.80;;;;;;;9.43;100.00;95905.84;5025158;28;20107;-80
2022/04/26 08:58:39;;;;;;;4.63;3.03;;;;;;;9.42;100.00;95904.19;5028107;28;20025;-80
2022/04/26 09:01:15;;;;;;;6.27;4.03;;;;;;;9.05;100.00;95910.63;5056359;28;20055;-80
2022/04/26 09:03:54;;;;;;;5.10;3.40;;;;;;;9.01;100.00;95909.31;5030627;28;20072;-81
2022/04/26 09:06:21;;;;;;;5.87;4.23;;;;;;;8.98;100.00;95914.88;5042479;28;20095;-80
2022/04/26 09:08:48;;;;;;;5.93;3.83;;;;;;;8.84;100.00;95931.19;5038206;28;20192;-80
2022/04/26 09:11:21;;;;;;;6.17;4.07;;;;;;;8.69;100.00;95934.41;5035913;28;20036;-80
2022/04/26 09:13:47;;;;;;;6.13;4.10;;;;;;;8.68;100.00;95927.47;5034052;28;20496;-80
2022/04/26 09:16:18;;;;;;;6.03;4.47;;;;;;;8.49;100.00;95939.00;5018570;28;20148;-80
2022/04/26 09:18:59;;;;;;;6.23;4.37;;;;;;;8.49;100.00;95940.81;5034539;28;20049;-80
2022/04/26 09:21:27;;;;;;;5.67;3.70;;;;;;;8.36;100.00;95935.94;5034194;28;20044;-80
2022/04/26 09:24:01;;;;;;;6.60;4.43;;;;;;;8.38;100.00;95948.91;5030904;28;20041;-80
2022/04/26 09:26:40;;;;;;;7.90;4.97;;;;;;;8.47;100.00;95951.44;5029194;28;20044;-80
2022/04/26 09:29:08;;;;;;;7.30;4.23;;;;;;;8.32;100.00;95960.81;5032403;28;20234;-79
2022/04/26 09:31:37;;;;;;;7.40;4.80;;;;;;;8.34;100.00;95961.47;5034416;28;20042;-80
2022/04/26 09:34:13;;;;;;;6.90;4.90;;;;;;;8.26;100.00;95956.16;5032900;28;20072;-80
2022/04/26 09:36:45;;;;;;;7.10;4.63;;;;;;;8.29;100.00;95960.28;5007721;28;20044;-80
2022/04/26 09:39:16;;;;;;;9.23;6.37;;;;;;;8.17;100.00;95960.50;5037807;28;20045;-80
2022/04/26 09:41:49;;;;;;;8.40;6.30;;;;;;;8.25;100.00;95973.69;5024381;28;20048;-80
2022/04/26 09:44:14;;;;;;;9.35;6.57;;;;;;;8.21;100.00;95966.25;5031995;28;20033;-80
2022/04/26 09:46:40;;;;;;;8.67;6.00;;;;;;;8.22;100.00;95971.38;5033778;28;20518;-80
2022/04/26 09:49:06;;;;;;;9.87;7.50;;;;;;;8.32;100.00;95967.84;5029816;28;20041;-80
2022/04/26 09:51:32;;;;;;;8.47;6.53;;;;;;;8.29;100.00;95966.34;5034516;28;20033;-79
2022/04/26 09:53:58;;;;;;;10.20;7.90;;;;;;;8.36;100.00;95969.19;5037764;28;20040;-80
2022/04/26 09:56:27;;;;;;;10.03;8.10;;;;;;;8.38;100.00;95973.31;5026634;28;20071;-80
2022/04/26 09:58:58;;;;;;;9.60;7.80;;;;;;;8.43;100.00;95983.34;5044157;28;20032;-79
2022/04/26 10:01:40;;;;;;;10.63;7.60;;;;;;;8.33;100.00;95982.59;5020346;28;20119;-80
2022/04/26 10:04:08;;;;;;;10.70;8.40;;;;;;;8.41;100.00;95982.66;5025217;28;20033;-80
2022/04/26 10:06:38;;;;;;;8.60;6.30;;;;;;;8.37;100.00;95981.31;5039176;28;20697;-80
2022/04/26 10:09:06;;;;;;;9.80;6.47;;;;;;;8.34;100.00;95986.84;5036802;28;20044;-79
2022/04/26 10:11:32;;;;;;;9.17;7.03;;;;;;;8.22;100.00;95978.41;5043504;28;20029;-80
2022/04/26 10:14:02;;;;;;;9.27;6.73;;;;;;;8.37;100.00;95986.53;5042288;28;20111;-80
2022/04/26 10:16:28;;;;;;;9.43;7.33;;;;;;;8.49;100.00;95980.94;5041944;28;20030;-81
2022/04/26 10:19:08;;;;;;;9.90;7.37;;;;;;;8.62;100.00;95980.56;5024365;28;20057;-80
2022/04/26 10:21:40;;;;;;;10.70;7.10;;;;;;;8.63;100.00;95986.63;5032551;28;20093;-80
2022/04/26 10:24:06;;;;;;;10.20;8.20;;;;;;;8.79;100.00;95985.91;5029059;28;20704;-80
2022/04/26 10:26:35;;;;;;;9.40;7.10;;;;;;;8.95;100.00;95978.13;5013557;28;20037;-79
2022/04/26 10:29:06;;;;;;;10.10;7.33;;;;;;;9.21;100.00;95972.84;5030790;28;20033;-78
2022/04/26 10:31:38;;;;;;;11.17;8.27;;;;;;;9.43;100.00;95976.72;5030884;28;20041;-78
2022/04/26 10:34:16;;;;;;;9.87;7.60;;;;;;;9.53;100.00;95974.78;5028350;28;20037;-78
2022/04/26 10:36:43;;;;;;;10.03;7.60;;;;;;;9.54;100.00;95973.81;5027693;28;20068;-78
2022/04/26 10:39:08;;;;;;;12.87;10.00;;;;;;;9.34;100.00;95973.22;5046664;28;20116;-78
2022/04/26 10:41:42;;;;;;;10.70;8.73;;;;;;;9.39;100.00;95967.53;5033538;28;21015;-78
2022/04/26 10:44:16;;;;;;;;;;;;;;;9.57;100.00;95960.34;5036146;28;20036;-77
2022/04/26 10:46:44;;;;;;;10.77;8.30;;;;;;;10.06;100.00;95947.34;5037313;28;19969;-77
2022/04/26 10:49:23;;;;;;;11.10;9.13;;;;;;;10.34;100.00;95954.94;5019098;28;20033;-78
2022/04/26 10:51:57;;;;;;;11.17;8.70;;;;;;;10.05;100.00;95964.06;5036063;28;20030;-78
2022/04/26 10:55:01;;;;;;;10.77;8.30;;;;;;;10.24;100.00;95962.13;5034021;28;20037;-77
2022/04/26 10:57:35;;;;;;;13.30;8.90;;;;;;;10.10;100.00;95956.53;5015605;28;20044;-78
2022/04/26 11:00:04;;;;;;;11.80;9.13;;;;;;;10.38;100.00;95969.38;5019542;28;20422;-78
2022/04/26 11:02:39;;;;;;;12.00;9.37;;;;;;;10.48;100.00;95962.13;5036885;28;20120;-79
2022/04/26 11:05:23;;;;;;;11.60;8.17;;;;;;;10.50;100.00;95973.31;5040370;28;20168;-79
2022/04/26 11:07:49;;;;;;;10.33;8.30;;;;;;;10.20;100.00;95977.41;5026678;28;20120;-79
2022/04/26 11:10:19;;;;;;;11.40;9.23;;;;;;;10.09;100.00;95981.16;5021608;28;20055;-79
2022/04/26 11:12:45;;;;;;;10.57;8.27;;;;;;;10.23;100.00;95978.84;5035858;28;20457;-78
2022/04/26 11:15:14;;;;;;;11.60;9.73;;;;;;;10.29;100.00;95983.50;5036222;28;20030;-79
2022/04/26 11:17:41;;;;;;;11.43;9.50;;;;;;;10.48;100.00;95987.63;5025112;28;20057;-80
2022/04/26 11:20:22;;;;;;;11.27;8.73;;;;;;;10.25;100.00;95985.59;5021296;28;20033;-79
2022/04/26 11:22:51;;;;;;;10.90;8.83;;;;;;;10.36;100.00;95987.09;5003792;28;20454;-79
2022/04/26 11:28:11;;;;;;;11.73;9.53;;;;;;;11.28;100.00;95987.66;5012259;28;20038;-79
2022/04/26 11:30:55;;;;;;;11.30;9.25;;;;;;;11.99;100.00;95976.16;5012646;28;20060;-78
2022/04/26 11:33:22;;;;;;;12.80;10.57;;;;;;;11.93;100.00;95981.28;5010974;28;20033;-79
2022/04/26 11:36:00;;;;;;;11.90;10.13;;;;;;;11.82;100.00;95982.47;4994016;28;20044;-79
2022/04/26 11:38:27;;;;;;;11.93;9.83;;;;;;;12.06;100.00;95981.53;5023057;28;20030;-80
2022/04/26 11:41:00;;;;;;;11.40;7.77;;;;;;;13.09;100.00;95977.56;5028456;28;20021;-80
2022/04/26 11:43:27;;;;;;;;;;;;;;;12.77;100.00;95983.97;5027039;28;20061;-80
2022/04/26 11:45:55;;;;;;;12.30;9.03;;;;;;;12.21;100.00;95990.34;5010435;28;19923;-80
2022/04/26 11:48:24;;;;;;;9.87;8.17;;;;;;;12.01;100.00;95984.72;5016912;28;20060;-80
2022/04/26 11:50:51;;;;;;;9.27;8.07;;;;;;;11.63;100.00;95993.44;5033438;28;20026;-80
2022/04/26 11:53:20;;;;;;;11.10;7.80;;;;;;;11.86;100.00;95986.44;5034005;28;20036;-81
2022/04/26 11:56:06;;;;;;;9.27;7.77;;;;;;;12.31;100.00;95982.22;5016951;28;20080;-80
2022/04/26 11:58:40;;;;;;;10.90;7.43;;;;;;;13.18;100.00;95976.50;5032091;28;20117;-80
2022/04/26 12:01:15;;;;;;;9.77;7.93;;;;;;;13.90;100.00;95966.03;5018741;28;20657;-80
2022/04/26 12:03:51;;;;;;;8.73;6.77;;;;;;;14.32;96.20;95967.09;5016451;28;20049;-80
2022/04/26 12:06:28;;;;;;;9.20;6.47;;;;;;;14.15;88.23;95970.97;5035664;28;20521;-80
2022/04/26 12:09:00;;;;;;;8.80;6.00;;;;;;;14.65;83.79;95965.75;5036329;28;20041;-80
2022/04/26 12:11:37;;;;;;;9.70;6.45;;;;;;;15.18;82.83;95960.84;5018768;28;20126;-80
2022/04/26 12:14:11;;;;;;;9.37;6.47;;;;;;;15.42;80.37;95964.84;5033721;28;20099;-80
2022/04/26 12:16:48;;;;;;;10.88;5.85;;;;;;;15.12;75.92;95961.63;5034801;28;20061;-80
2022/04/26 12:19:15;;;;;;;7.68;5.10;;;;;;;14.13;71.57;95965.88;5033719;28;20037;-81
2022/04/26 12:21:46;;;;;;;7.88;5.28;;;;;;;14.49;78.64;95972.13;5033519;28;20037;-80
2022/04/26 12:24:24;;;;;;;7.15;5.03;;;;;;;14.50;75.60;95965.81;5027113;28;20036;-80
2022/04/26 12:26:52;;;;;;;8.75;5.90;;;;;;;13.71;78.21;95963.97;5024420;28;20041;-80
2022/04/26 12:29:18;;;;;;;7.72;5.55;;;;;;;13.70;82.16;95962.34;5033035;28;20030;-81
2022/04/26 12:31:47;;;;;;;7.75;5.60;;;;;;;14.18;76.48;95957.38;5037001;28;20036;-80
2022/04/26 12:34:20;;;;;;;8.20;5.53;;;;;;;14.04;76.73;95966.19;5020667;28;20037;-80
2022/04/26 12:36:52;;;;;;;7.45;5.78;;;;;;;13.85;76.50;95963.16;5019684;28;20550;-80
2022/04/26 12:39:23;;;;;;;7.72;5.82;;;;;;;13.74;78.63;95960.16;5019540;28;20040;-80
2022/04/26 12:41:50;;;;;;;10.40;6.38;;;;;;;13.49;82.36;95954.38;5021807;28;20107;-80
2022/04/26 12:44:18;;;;;;;8.60;6.07;;;;;;;13.51;82.70;95957.63;5018350;28;20048;-80
2022/04/26 12:50:27;;;;;;;8.63;6.10;;;;;;;13.66;83.24;95950.50;5008190;28;20056;-80
2022/04/26 12:52:41;;;;;;;9.85;6.68;;;;;;;14.30;74.38;95945.28;5030568;28;20041;-80
2022/04/26 12:55:07;;;;;;;8.88;6.75;;;;;;;13.73;75.28;95959.34;5033767;28;20052;-79
2022/04/26 12:57:50;;;;;;;8.52;6.35;;;;;;;13.68;86.14;95961.69;5018046;28;20037;-80
2022/04/26 13:00:18;;;;;;;9.95;6.25;;;;;;;13.74;83.88;95966.25;5012284;28;20088;-80
2022/04/26 13:02:48;;;;;;;7.65;5.35;;;;;;;13.26;84.35;95975.59;5031581;28;20032;-80
2022/04/26 13:05:15;;;;;;;7.53;5.90;;;;;;;13.06;86.42;95975.28;5033441;28;20049;-80
2022/04/26 13:07:42;;;;;;;9.27;6.30;;;;;;;12.62;99.13;95989.22;5032515;28;20037;-80
2022/04/26 13:10:08;;;;;;;10.33;6.30;;;;;;;12.21;99.62;95994.81;5042555;28;20029;-81
2022/04/26 13:12:34;;;;;;;9.47;5.80;;;;;;;11.23;100.00;96011.00;5038928;28;20025;-81
2022/04/26 13:15:00;;;;;;;8.77;5.40;;;;;;;10.80;100.00;96020.97;5037845;28;20033;-80
2022/04/26 13:17:27;;;;;;;14.20;6.47;;;;;;;10.46;100.00;96024.59;5028174;28;20040;-79
2022/04/26 13:19:54;;;;;;;9.50;6.80;;;;;;;10.19;100.00;96037.97;5031534;28;20068;-79
2022/04/26 13:22:21;;;;;;;10.23;6.63;;;;;;;9.71;100.00;96044.75;5031657;28;20030;-79
2022/04/26 13:24:47;;;;;;;10.67;6.77;;;;;;;9.47;100.00;96048.91;5030708;28;20037;-79
2022/04/26 13:27:13;;;;;;;10.00;6.93;;;;;;;9.53;100.00;96037.78;5031693;28;20168;-79
2022/04/26 13:29:39;;;;;;;10.43;6.90;;;;;;;9.36;100.00;96049.19;5030443;28;20486;-79
2022/04/26 13:32:05;;;;;;;9.17;6.77;;;;;;;9.35;100.00;96056.22;5032001;28;20021;-78
2022/04/26 13:34:31;;;;;;;13.03;9.17;;;;;;;9.49;100.00;96052.22;5029038;28;20034;-79
2022/04/26 13:36:57;;;;;;;8.27;6.77;;;;;;;9.54;100.00;96044.69;5033321;28;20037;-79
2022/04/26 13:39:23;;;;;;;9.07;7.27;;;;;;;9.40;100.00;96055.78;5037899;28;20443;-80
2022/04/26 13:41:50;;;;;;;12.60;8.27;;;;;;;9.49;100.00;96052.22;5003966;28;20569;-79
2022/04/26 13:44:19;;;;;;;9.63;7.37;;;;;;;9.55;100.00;96058.63;5031585;28;20037;-80
2022/04/26 13:46:46;;;;;;;11.27;7.83;;;;;;;9.59;100.00;96065.19;5033675;28;20533;-79
2022/04/26 13:49:12;;;;;;;11.33;8.27;;;;;;;9.71;100.00;96068.38;5029558;28;20025;-79
2022/04/26 13:51:38;;;;;;;10.33;8.50;;;;;;;9.76;100.00;96059.06;5015686;28;20548;-79
2022/04/26 13:54:04;;;;;;;10.23;8.40;;;;;;;9.81;100.00;96066.44;5033524;28;20034;-79
2022/04/26 13:56:30;;;;;;;12.93;8.37;;;;;;;9.73;100.00;96066.44;5032549;28;20490;-79
2022/04/26 13:58:55;;;;;;;11.23;8.77;;;;;;;9.79;100.00;96068.41;5031427;28;20144;-79
2022/04/26 14:01:23;;;;;;;13.43;8.97;;;;;;;9.52;100.00;96078.13;5032600;28;20121;-79
2022/04/26 14:03:49;;;;;;;11.90;8.50;;;;;;;9.08;100.00;96087.88;5037719;28;20083;-79
2022/04/26 14:06:21;;;;;;;12.53;9.50;;;;;;;9.30;100.00;96083.94;5038746;28;20059;-79
2022/04/26 14:08:51;;;;;;;14.10;8.83;;;;;;;9.32;100.00;96079.31;5036897;28;20030;-79
2022/04/26 14:11:21;;;;;;;12.53;9.77;;;;;;;9.20;100.00;96079.59;5036455;28;20028;-79
2022/04/26 14:21:59;;;;;;;13.23;9.30;;;;;;;9.82;100.00;96061.03;5047943;28;20037;-80
2022/04/26 14:24:25;;;;;;;14.50;8.93;;;;;;;10.38;100.00;96056.13;5040343;28;20030;-80
2022/04/26 14:26:51;;;;;;;11.53;8.50;;;;;;;10.70;100.00;96063.22;5038202;28;20037;-80
2022/04/26 14:29:17;;;;;;;12.20;9.23;;;;;;;10.96;100.00;96063.03;5040260;28;20682;-80
2022/04/26 14:31:43;;;;;;;10.10;7.77;;;;;;;11.06;100.00;96062.88;5037992;28;20033;-80
2022/04/26 14:34:10;;;;;;;13.13;7.60;;;;;;;10.81;100.00;96067.34;5039527;28;20025;-80
2022/04/26 14:36:37;;;;;;;11.10;7.70;;;;;;;10.37;100.00;96070.25;5035283;28;20033;-80
2022/04/26 14:39:03;;;;;;;9.83;7.70;;;;;;;10.06;100.00;96070.81;5040987;28;20029;-80
2022/04/26 14:41:29;;;;;;;10.10;7.30;;;;;;;9.87;100.00;96068.44;5039402;28;20060;-80
2022/04/26 14:43:55;;;;;;;9.57;6.77;;;;;;;9.64;100.00;96079.50;5041972;28;20040;-79
2022/04/26 14:46:21;;;;;;;9.27;5.87;;;;;;;9.59;100.00;96081.81;5037778;28;20737;-80
2022/04/26 14:48:47;;;;;;;12.23;6.47;;;;;;;9.79;100.00;96071.03;5034011;28;20041;-80
2022/04/26 14:51:13;;;;;;;8.33;6.37;;;;;;;9.74;100.00;96082.03;5035692;28;21366;-79
2022/04/26 14:53:39;;;;;;;9.03;5.70;;;;;;;9.40;100.00;96079.41;5028465;28;20037;-79
2022/04/26 14:56:06;;;;;;;7.37;5.33;;;;;;;9.32;100.00;96080.19;5034436;28;20029;-79
2022/04/26 14:58:33;;;;;;;7.77;5.27;;;;;;;9.01;100.00;96082.41;5037244;28;20072;-80
2022/04/26 15:00:59;;;;;;;9.70;6.07;;;;;;;9.05;100.00;96081.13;5033631;28;20033;-79
2022/04/26 15:03:25;;;;;;;7.87;5.70;;;;;;;9.09;100.00;96079.88;5027863;28;20402;-80
2022/04/26 15:05:51;;;;;;;8.60;5.10;;;;;;;9.18;100.00;96075.47;5030171;28;20044;-78
2022/04/26 15:11:01;;;;;;;9.57;6.10;;;;;;;9.30;100.00;96090.00;5030627;28;20735;-78
2022/04/26 15:18:55;;;;;;;8.37;5.50;;;;;;;9.68;100.00;96086.09;5030562;28;20037;-80
2022/04/26 15:21:23;;;;;;;9.03;5.80;;;;;;;9.88;100.00;96084.03;5033656;28;20561;-79
2022/04/26 15:23:50;;;;;;;9.77;6.37;;;;;;;10.09;100.00;96077.53;5035983;28;20206;-80
2022/04/26 15:26:16;;;;;;;8.23;4.70;;;;;;;10.52;100.00;96071.25;5035324;28;20038;-81
2022/04/26 15:28:42;;;;;;;8.70;5.50;;;;;;;10.67;100.00;96075.88;5037905;28;20041;-81
2022/04/26 15:31:08;;;;;;;7.83;5.00;;;;;;;10.61;100.00;96077.34;5034163;28;20028;-79
2022/04/26 15:33:33;;;;;;;7.73;4.70;;;;;;;10.80;100.00;96076.22;5015061;28;20057;-80
2022/04/26 15:35:59;;;;;;;7.87;4.67;;;;;;;10.97;100.00;96084.94;5019533;28;20578;-79
2022/04/26 15:38:29;;;;;;;9.40;4.23;;;;;;;10.95;100.00;96087.72;5021373;28;20037;-82